sensor_id;sensor_type;location;lat;lon;timestamp;P1;durP1;ratioP1;P2;durP2;ratioP2
65835;SDS011;52595;51.608;7.216;2023-07-31T00:00:10;4.05;;;2.38;;
65835;SDS011;52595;51.608;7.216;2023-07-31T00:02:36;4.72;;;2.50;;
65835;SDS011;52595;51.608;7.216;2023-07-31T00:05:01;6.57;;;2.50;;
65835;SDS011;52595;51.608;7.216;2023-07-31T00:07:27;4.28;;;2.60;;
65835;SDS011;52595;51.608;7.216;2023-07-31T00:09:52;5.10;;;2.83;;
65835;SDS011;52595;51.608;7.216;2023-07-31T00:12:18;5.18;;;3.00;;
65835;SDS011;52595;51.608;7.216;2023-07-31T00:14:44;6.85;;;3.83;;
65835;SDS011;52595;51.608;7.216;2023-07-31T00:17:10;6.45;;;3.70;;
65835;SDS011;52595;51.608;7.216;2023-07-31T00:19:36;6.30;;;3.90;;
65835;SDS011;52595;51.608;7.216;2023-07-31T00:22:04;6.43;;;4.03;;
65835;SDS011;52595;51.608;7.216;2023-07-31T00:24:29;6.38;;;3.60;;
65835;SDS011;52595;51.608;7.216;2023-07-31T00:26:55;7.15;;;3.90;;
65835;SDS011;52595;51.608;7.216;2023-07-31T00:29:20;5.13;;;3.00;;
65835;SDS011;52595;51.608;7.216;2023-07-31T00:31:45;6.15;;;3.20;;
65835;SDS011;52595;51.608;7.216;2023-07-31T00:34:11;6.78;;;3.25;;
65835;SDS011;52595;51.608;7.216;2023-07-31T00:36:36;5.97;;;3.70;;
65835;SDS011;52595;51.608;7.216;2023-07-31T00:39:01;7.20;;;4.07;;
65835;SDS011;52595;51.608;7.216;2023-07-31T00:41:27;8.27;;;4.72;;
65835;SDS011;52595;51.608;7.216;2023-07-31T00:43:52;6.80;;;4.18;;
65835;SDS011;52595;51.608;7.216;2023-07-31T00:46:18;8.90;;;5.45;;
65835;SDS011;52595;51.608;7.216;2023-07-31T00:48:43;11.48;;;6.25;;
65835;SDS011;52595;51.608;7.216;2023-07-31T00:51:09;12.57;;;6.78;;
65835;SDS011;52595;51.608;7.216;2023-07-31T00:53:35;14.00;;;6.60;;
65835;SDS011;52595;51.608;7.216;2023-07-31T00:56:01;11.98;;;6.57;;
65835;SDS011;52595;51.608;7.216;2023-07-31T00:58:27;11.57;;;5.35;;
65835;SDS011;52595;51.608;7.216;2023-07-31T01:00:52;14.75;;;7.30;;
65835;SDS011;52595;51.608;7.216;2023-07-31T01:03:18;17.52;;;8.02;;
65835;SDS011;52595;51.608;7.216;2023-07-31T01:11:25;20.33;;;8.15;;
65835;SDS011;52595;51.608;7.216;2023-07-31T01:16:18;18.27;;;6.32;;
65835;SDS011;52595;51.608;7.216;2023-07-31T01:18:44;16.02;;;6.85;;
65835;SDS011;52595;51.608;7.216;2023-07-31T01:24:34;21.47;;;7.73;;
65835;SDS011;52595;51.608;7.216;2023-07-31T01:27:08;12.65;;;5.47;;
65835;SDS011;52595;51.608;7.216;2023-07-31T01:32:14;16.20;;;5.95;;
65835;SDS011;52595;51.608;7.216;2023-07-31T01:34:41;22.45;;;7.40;;
65835;SDS011;52595;51.608;7.216;2023-07-31T01:37:07;17.15;;;6.78;;
65835;SDS011;52595;51.608;7.216;2023-07-31T01:39:33;20.05;;;6.82;;
65835;SDS011;52595;51.608;7.216;2023-07-31T01:41:58;23.70;;;7.03;;
65835;SDS011;52595;51.608;7.216;2023-07-31T01:44:24;16.80;;;6.80;;
65835;SDS011;52595;51.608;7.216;2023-07-31T01:46:49;19.80;;;6.45;;
65835;SDS011;52595;51.608;7.216;2023-07-31T01:49:14;15.55;;;5.65;;
65835;SDS011;52595;51.608;7.216;2023-07-31T01:51:40;15.10;;;4.70;;
65835;SDS011;52595;51.608;7.216;2023-07-31T01:54:05;14.77;;;5.82;;
65835;SDS011;52595;51.608;7.216;2023-07-31T01:56:31;11.82;;;5.15;;
65835;SDS011;52595;51.608;7.216;2023-07-31T01:58:56;16.08;;;5.72;;
65835;SDS011;52595;51.608;7.216;2023-07-31T02:01:22;16.38;;;5.93;;
65835;SDS011;52595;51.608;7.216;2023-07-31T02:03:47;20.02;;;5.18;;
65835;SDS011;52595;51.608;7.216;2023-07-31T02:06:13;11.88;;;5.20;;
65835;SDS011;52595;51.608;7.216;2023-07-31T02:08:38;19.10;;;5.93;;
65835;SDS011;52595;51.608;7.216;2023-07-31T02:11:03;16.95;;;5.30;;
65835;SDS011;52595;51.608;7.216;2023-07-31T02:13:29;14.15;;;5.40;;
65835;SDS011;52595;51.608;7.216;2023-07-31T02:15:54;21.27;;;5.47;;
65835;SDS011;52595;51.608;7.216;2023-07-31T02:18:20;15.40;;;5.18;;
65835;SDS011;52595;51.608;7.216;2023-07-31T02:20:51;14.98;;;5.82;;
65835;SDS011;52595;51.608;7.216;2023-07-31T02:23:17;16.98;;;5.60;;
65835;SDS011;52595;51.608;7.216;2023-07-31T02:25:43;13.23;;;5.13;;
65835;SDS011;52595;51.608;7.216;2023-07-31T02:28:09;16.13;;;5.50;;
65835;SDS011;52595;51.608;7.216;2023-07-31T02:30:35;14.20;;;5.10;;
65835;SDS011;52595;51.608;7.216;2023-07-31T02:33:00;16.88;;;4.95;;
65835;SDS011;52595;51.608;7.216;2023-07-31T02:35:26;11.80;;;4.43;;
65835;SDS011;52595;51.608;7.216;2023-07-31T02:37:51;13.02;;;3.95;;
65835;SDS011;52595;51.608;7.216;2023-07-31T02:40:17;17.45;;;5.18;;
65835;SDS011;52595;51.608;7.216;2023-07-31T02:42:42;14.68;;;4.38;;
65835;SDS011;52595;51.608;7.216;2023-07-31T02:45:07;14.80;;;4.13;;
65835;SDS011;52595;51.608;7.216;2023-07-31T02:47:33;13.10;;;4.72;;
65835;SDS011;52595;51.608;7.216;2023-07-31T02:49:59;15.27;;;4.82;;
65835;SDS011;52595;51.608;7.216;2023-07-31T02:52:25;13.93;;;4.68;;
65835;SDS011;52595;51.608;7.216;2023-07-31T02:54:53;10.95;;;4.20;;
65835;SDS011;52595;51.608;7.216;2023-07-31T02:57:18;13.00;;;3.88;;
65835;SDS011;52595;51.608;7.216;2023-07-31T02:59:44;11.55;;;4.20;;
65835;SDS011;52595;51.608;7.216;2023-07-31T03:02:09;10.63;;;3.83;;
65835;SDS011;52595;51.608;7.216;2023-07-31T03:04:35;13.80;;;4.28;;
65835;SDS011;52595;51.608;7.216;2023-07-31T03:07:01;10.93;;;4.30;;
65835;SDS011;52595;51.608;7.216;2023-07-31T03:09:26;10.88;;;4.10;;
65835;SDS011;52595;51.608;7.216;2023-07-31T03:11:51;10.20;;;4.18;;
65835;SDS011;52595;51.608;7.216;2023-07-31T03:14:17;13.18;;;4.47;;
65835;SDS011;52595;51.608;7.216;2023-07-31T03:16:42;15.60;;;4.25;;
65835;SDS011;52595;51.608;7.216;2023-07-31T03:19:08;16.55;;;4.50;;
65835;SDS011;52595;51.608;7.216;2023-07-31T03:21:36;16.08;;;4.78;;
65835;SDS011;52595;51.608;7.216;2023-07-31T03:24:01;13.55;;;3.67;;
65835;SDS011;52595;51.608;7.216;2023-07-31T03:26:27;16.20;;;4.40;;
65835;SDS011;52595;51.608;7.216;2023-07-31T03:28:52;11.07;;;3.72;;
65835;SDS011;52595;51.608;7.216;2023-07-31T03:31:17;13.93;;;4.10;;
65835;SDS011;52595;51.608;7.216;2023-07-31T03:33:43;10.45;;;3.90;;
65835;SDS011;52595;51.608;7.216;2023-07-31T03:36:08;13.40;;;4.13;;
65835;SDS011;52595;51.608;7.216;2023-07-31T03:38:34;14.57;;;4.25;;
65835;SDS011;52595;51.608;7.216;2023-07-31T03:41:00;17.85;;;4.45;;
65835;SDS011;52595;51.608;7.216;2023-07-31T03:43:28;12.23;;;3.83;;
65835;SDS011;52595;51.608;7.216;2023-07-31T03:45:54;16.33;;;3.67;;
65835;SDS011;52595;51.608;7.216;2023-07-31T03:48:19;17.05;;;4.63;;
65835;SDS011;52595;51.608;7.216;2023-07-31T03:50:45;14.90;;;4.90;;
65835;SDS011;52595;51.608;7.216;2023-07-31T03:53:10;14.68;;;4.38;;
65835;SDS011;52595;51.608;7.216;2023-07-31T03:55:35;13.60;;;4.90;;
65835;SDS011;52595;51.608;7.216;2023-07-31T03:58:01;11.05;;;3.72;;
65835;SDS011;52595;51.608;7.216;2023-07-31T04:00:26;15.93;;;4.60;;
65835;SDS011;52595;51.608;7.216;2023-07-31T04:02:52;11.75;;;4.13;;
65835;SDS011;52595;51.608;7.216;2023-07-31T04:05:18;13.38;;;4.45;;
65835;SDS011;52595;51.608;7.216;2023-07-31T04:07:43;9.55;;;3.90;;
65835;SDS011;52595;51.608;7.216;2023-07-31T04:10:08;15.63;;;5.13;;
65835;SDS011;52595;51.608;7.216;2023-07-31T04:12:34;11.32;;;4.18;;
65835;SDS011;52595;51.608;7.216;2023-07-31T04:15:00;16.75;;;5.00;;
65835;SDS011;52595;51.608;7.216;2023-07-31T04:17:25;14.32;;;4.97;;
65835;SDS011;52595;51.608;7.216;2023-07-31T04:19:50;11.55;;;4.38;;
65835;SDS011;52595;51.608;7.216;2023-07-31T04:22:18;13.45;;;4.72;;
65835;SDS011;52595;51.608;7.216;2023-07-31T04:24:44;10.30;;;4.60;;
65835;SDS011;52595;51.608;7.216;2023-07-31T04:27:09;13.48;;;4.95;;
65835;SDS011;52595;51.608;7.216;2023-07-31T04:29:35;16.13;;;4.85;;
65835;SDS011;52595;51.608;7.216;2023-07-31T04:32:00;15.23;;;4.22;;
65835;SDS011;52595;51.608;7.216;2023-07-31T04:34:26;10.57;;;4.03;;
65835;SDS011;52595;51.608;7.216;2023-07-31T04:36:51;14.60;;;4.63;;
65835;SDS011;52595;51.608;7.216;2023-07-31T04:39:16;12.82;;;4.65;;
65835;SDS011;52595;51.608;7.216;2023-07-31T04:41:42;13.93;;;4.25;;
65835;SDS011;52595;51.608;7.216;2023-07-31T04:44:07;12.77;;;4.15;;
65835;SDS011;52595;51.608;7.216;2023-07-31T04:46:33;13.25;;;3.95;;
65835;SDS011;52595;51.608;7.216;2023-07-31T04:48:58;12.27;;;4.35;;
65835;SDS011;52595;51.608;7.216;2023-07-31T04:51:23;14.25;;;5.03;;
65835;SDS011;52595;51.608;7.216;2023-07-31T04:53:50;10.57;;;4.03;;
65835;SDS011;52595;51.608;7.216;2023-07-31T04:56:15;9.80;;;4.30;;
65835;SDS011;52595;51.608;7.216;2023-07-31T04:58:41;8.50;;;4.03;;
65835;SDS011;52595;51.608;7.216;2023-07-31T05:01:09;12.00;;;4.18;;
65835;SDS011;52595;51.608;7.216;2023-07-31T05:03:34;14.82;;;4.68;;
65835;SDS011;52595;51.608;7.216;2023-07-31T05:05:59;14.65;;;5.05;;
65835;SDS011;52595;51.608;7.216;2023-07-31T05:08:25;12.90;;;5.10;;
65835;SDS011;52595;51.608;7.216;2023-07-31T05:10:50;11.55;;;4.93;;
65835;SDS011;52595;51.608;7.216;2023-07-31T05:13:16;14.95;;;5.47;;
65835;SDS011;52595;51.608;7.216;2023-07-31T05:15:42;13.70;;;5.28;;
65835;SDS011;52595;51.608;7.216;2023-07-31T05:18:07;13.32;;;5.07;;
65835;SDS011;52595;51.608;7.216;2023-07-31T05:20:32;13.02;;;4.90;;
65835;SDS011;52595;51.608;7.216;2023-07-31T05:22:58;14.15;;;4.90;;
65835;SDS011;52595;51.608;7.216;2023-07-31T05:25:23;16.17;;;5.53;;
65835;SDS011;52595;51.608;7.216;2023-07-31T05:27:49;11.73;;;4.75;;
65835;SDS011;52595;51.608;7.216;2023-07-31T05:30:14;12.68;;;4.88;;
65835;SDS011;52595;51.608;7.216;2023-07-31T05:32:39;11.85;;;4.68;;
65835;SDS011;52595;51.608;7.216;2023-07-31T05:35:05;15.57;;;5.53;;
65835;SDS011;52595;51.608;7.216;2023-07-31T05:37:31;15.50;;;5.07;;
65835;SDS011;52595;51.608;7.216;2023-07-31T05:39:56;13.50;;;5.05;;
65835;SDS011;52595;51.608;7.216;2023-07-31T05:42:21;10.25;;;4.57;;
65835;SDS011;52595;51.608;7.216;2023-07-31T05:44:47;12.63;;;4.88;;
65835;SDS011;52595;51.608;7.216;2023-07-31T05:47:12;13.65;;;4.90;;
65835;SDS011;52595;51.608;7.216;2023-07-31T05:49:38;10.70;;;4.70;;
65835;SDS011;52595;51.608;7.216;2023-07-31T05:52:03;14.55;;;5.57;;
65835;SDS011;52595;51.608;7.216;2023-07-31T05:54:29;13.27;;;5.40;;
65835;SDS011;52595;51.608;7.216;2023-07-31T05:56:54;12.90;;;6.55;;
65835;SDS011;52595;51.608;7.216;2023-07-31T05:59:20;15.75;;;6.60;;
65835;SDS011;52595;51.608;7.216;2023-07-31T06:01:45;16.58;;;6.82;;
65835;SDS011;52595;51.608;7.216;2023-07-31T06:04:10;16.58;;;6.88;;
65835;SDS011;52595;51.608;7.216;2023-07-31T06:06:36;16.85;;;6.93;;
65835;SDS011;52595;51.608;7.216;2023-07-31T06:09:04;19.33;;;7.43;;
65835;SDS011;52595;51.608;7.216;2023-07-31T06:11:30;15.43;;;7.57;;
65835;SDS011;52595;51.608;7.216;2023-07-31T06:13:55;16.02;;;8.18;;
65835;SDS011;52595;51.608;7.216;2023-07-31T06:16:21;15.07;;;8.48;;
65835;SDS011;52595;51.608;7.216;2023-07-31T06:18:46;15.73;;;8.48;;
65835;SDS011;52595;51.608;7.216;2023-07-31T06:21:12;18.60;;;8.57;;
65835;SDS011;52595;51.608;7.216;2023-07-31T06:23:38;23.88;;;8.73;;
65835;SDS011;52595;51.608;7.216;2023-07-31T06:26:06;25.60;;;8.57;;
65835;SDS011;52595;51.608;7.216;2023-07-31T06:28:31;19.50;;;8.05;;
65835;SDS011;52595;51.608;7.216;2023-07-31T06:30:57;20.30;;;8.73;;
65835;SDS011;52595;51.608;7.216;2023-07-31T06:33:23;18.73;;;7.70;;
65835;SDS011;52595;51.608;7.216;2023-07-31T06:35:49;20.27;;;8.13;;
65835;SDS011;52595;51.608;7.216;2023-07-31T06:38:14;19.85;;;7.93;;
65835;SDS011;52595;51.608;7.216;2023-07-31T06:40:39;23.25;;;8.85;;
65835;SDS011;52595;51.608;7.216;2023-07-31T06:43:05;19.60;;;8.32;;
65835;SDS011;52595;51.608;7.216;2023-07-31T06:45:34;18.63;;;8.07;;
65835;SDS011;52595;51.608;7.216;2023-07-31T06:48:01;17.58;;;8.50;;
65835;SDS011;52595;51.608;7.216;2023-07-31T06:50:27;19.00;;;7.85;;
65835;SDS011;52595;51.608;7.216;2023-07-31T06:52:54;20.35;;;8.07;;
65835;SDS011;52595;51.608;7.216;2023-07-31T06:55:20;20.30;;;8.07;;
65835;SDS011;52595;51.608;7.216;2023-07-31T06:57:47;21.02;;;8.23;;
65835;SDS011;52595;51.608;7.216;2023-07-31T07:00:16;19.23;;;8.23;;
65835;SDS011;52595;51.608;7.216;2023-07-31T07:02:42;17.77;;;7.75;;
65835;SDS011;52595;51.608;7.216;2023-07-31T07:05:08;17.85;;;7.47;;
65835;SDS011;52595;51.608;7.216;2023-07-31T07:07:34;20.83;;;7.70;;
65835;SDS011;52595;51.608;7.216;2023-07-31T07:10:00;18.23;;;8.20;;
65835;SDS011;52595;51.608;7.216;2023-07-31T07:12:26;17.25;;;7.65;;
65835;SDS011;52595;51.608;7.216;2023-07-31T07:14:54;14.85;;;6.85;;
65835;SDS011;52595;51.608;7.216;2023-07-31T07:17:19;14.68;;;5.90;;
65835;SDS011;52595;51.608;7.216;2023-07-31T07:19:45;13.38;;;6.75;;
65835;SDS011;52595;51.608;7.216;2023-07-31T07:22:12;12.35;;;5.72;;
65835;SDS011;52595;51.608;7.216;2023-07-31T07:24:38;11.00;;;5.68;;
65835;SDS011;52595;51.608;7.216;2023-07-31T07:27:03;11.98;;;5.43;;
65835;SDS011;52595;51.608;7.216;2023-07-31T07:29:29;13.90;;;5.60;;
65835;SDS011;52595;51.608;7.216;2023-07-31T07:31:54;11.40;;;5.82;;
65835;SDS011;52595;51.608;7.216;2023-07-31T07:34:22;11.30;;;6.20;;
65835;SDS011;52595;51.608;7.216;2023-07-31T07:36:48;12.45;;;6.50;;
65835;SDS011;52595;51.608;7.216;2023-07-31T07:39:14;9.93;;;5.35;;
65835;SDS011;52595;51.608;7.216;2023-07-31T07:41:39;15.57;;;6.15;;
65835;SDS011;52595;51.608;7.216;2023-07-31T07:44:04;11.05;;;5.82;;
65835;SDS011;52595;51.608;7.216;2023-07-31T07:46:30;12.90;;;5.85;;
65835;SDS011;52595;51.608;7.216;2023-07-31T07:48:55;9.30;;;5.68;;
65835;SDS011;52595;51.608;7.216;2023-07-31T07:51:21;10.98;;;5.95;;
65835;SDS011;52595;51.608;7.216;2023-07-31T07:53:46;14.13;;;6.80;;
65835;SDS011;52595;51.608;7.216;2023-07-31T07:56:12;11.45;;;5.63;;
65835;SDS011;52595;51.608;7.216;2023-07-31T07:58:37;8.60;;;4.75;;
65835;SDS011;52595;51.608;7.216;2023-07-31T08:01:03;10.88;;;4.95;;
65835;SDS011;52595;51.608;7.216;2023-07-31T08:03:31;11.90;;;5.68;;
65835;SDS011;52595;51.608;7.216;2023-07-31T08:06:00;8.55;;;4.70;;
65835;SDS011;52595;51.608;7.216;2023-07-31T08:08:27;10.93;;;4.53;;
65835;SDS011;52595;51.608;7.216;2023-07-31T08:10:53;12.43;;;5.03;;
65835;SDS011;52595;51.608;7.216;2023-07-31T08:13:19;7.72;;;4.05;;
65835;SDS011;52595;51.608;7.216;2023-07-31T08:15:44;10.85;;;5.03;;
65835;SDS011;52595;51.608;7.216;2023-07-31T08:18:10;9.52;;;4.68;;
65835;SDS011;52595;51.608;7.216;2023-07-31T08:20:36;7.22;;;3.60;;
65835;SDS011;52595;51.608;7.216;2023-07-31T08:23:02;11.25;;;5.10;;
65835;SDS011;52595;51.608;7.216;2023-07-31T08:25:28;11.88;;;5.25;;
65835;SDS011;52595;51.608;7.216;2023-07-31T08:27:53;7.75;;;4.55;;
65835;SDS011;52595;51.608;7.216;2023-07-31T08:30:19;10.63;;;4.75;;
65835;SDS011;52595;51.608;7.216;2023-07-31T08:32:44;8.70;;;4.25;;
65835;SDS011;52595;51.608;7.216;2023-07-31T08:35:10;8.45;;;4.30;;
65835;SDS011;52595;51.608;7.216;2023-07-31T08:37:36;7.70;;;3.85;;
65835;SDS011;52595;51.608;7.216;2023-07-31T08:40:03;6.60;;;3.58;;
65835;SDS011;52595;51.608;7.216;2023-07-31T08:42:28;6.03;;;3.30;;
65835;SDS011;52595;51.608;7.216;2023-07-31T08:44:54;6.85;;;3.15;;
65835;SDS011;52595;51.608;7.216;2023-07-31T08:47:21;7.43;;;3.50;;
65835;SDS011;52595;51.608;7.216;2023-07-31T08:49:47;7.07;;;3.53;;
65835;SDS011;52595;51.608;7.216;2023-07-31T08:52:14;8.02;;;3.88;;
65835;SDS011;52595;51.608;7.216;2023-07-31T08:54:40;9.55;;;4.25;;
65835;SDS011;52595;51.608;7.216;2023-07-31T08:57:06;7.10;;;3.30;;
65835;SDS011;52595;51.608;7.216;2023-07-31T08:59:33;7.38;;;3.90;;
65835;SDS011;52595;51.608;7.216;2023-07-31T09:02:09;8.25;;;3.95;;
65835;SDS011;52595;51.608;7.216;2023-07-31T09:04:35;7.40;;;3.78;;
65835;SDS011;52595;51.608;7.216;2023-07-31T09:07:02;6.68;;;3.83;;
65835;SDS011;52595;51.608;7.216;2023-07-31T09:09:32;8.93;;;3.70;;
65835;SDS011;52595;51.608;7.216;2023-07-31T09:11:57;7.05;;;3.67;;
65835;SDS011;52595;51.608;7.216;2023-07-31T09:14:24;5.85;;;3.38;;
65835;SDS011;52595;51.608;7.216;2023-07-31T09:16:54;9.55;;;3.90;;
65835;SDS011;52595;51.608;7.216;2023-07-31T09:19:29;8.98;;;3.97;;
65835;SDS011;52595;51.608;7.216;2023-07-31T09:21:59;7.07;;;4.07;;
65835;SDS011;52595;51.608;7.216;2023-07-31T09:24:26;6.00;;;3.65;;
65835;SDS011;52595;51.608;7.216;2023-07-31T09:26:53;7.68;;;3.70;;
65835;SDS011;52595;51.608;7.216;2023-07-31T09:29:23;6.50;;;3.55;;
65835;SDS011;52595;51.608;7.216;2023-07-31T09:31:49;7.68;;;4.00;;
65835;SDS011;52595;51.608;7.216;2023-07-31T09:34:18;6.28;;;3.00;;
65835;SDS011;52595;51.608;7.216;2023-07-31T09:36:46;6.65;;;2.85;;
65835;SDS011;52595;51.608;7.216;2023-07-31T09:39:13;6.65;;;3.40;;
65835;SDS011;52595;51.608;7.216;2023-07-31T09:41:47;7.57;;;3.60;;
65835;SDS011;52595;51.608;7.216;2023-07-31T09:44:13;8.23;;;3.30;;
65835;SDS011;52595;51.608;7.216;2023-07-31T09:46:39;4.18;;;2.55;;
65835;SDS011;52595;51.608;7.216;2023-07-31T09:49:05;4.38;;;2.75;;
65835;SDS011;52595;51.608;7.216;2023-07-31T09:51:32;5.47;;;2.75;;
65835;SDS011;52595;51.608;7.216;2023-07-31T09:56:28;5.38;;;3.00;;
65835;SDS011;52595;51.608;7.216;2023-07-31T09:58:54;4.82;;;3.20;;
65835;SDS011;52595;51.608;7.216;2023-07-31T10:01:21;4.95;;;2.90;;
65835;SDS011;52595;51.608;7.216;2023-07-31T10:03:46;6.53;;;2.92;;
65835;SDS011;52595;51.608;7.216;2023-07-31T10:06:12;6.50;;;2.95;;
65835;SDS011;52595;51.608;7.216;2023-07-31T10:08:40;5.55;;;3.10;;
65835;SDS011;52595;51.608;7.216;2023-07-31T10:11:07;4.40;;;2.40;;
65835;SDS011;52595;51.608;7.216;2023-07-31T10:13:34;5.57;;;3.13;;
65835;SDS011;52595;51.608;7.216;2023-07-31T10:16:00;4.43;;;3.10;;
65835;SDS011;52595;51.608;7.216;2023-07-31T10:18:27;5.15;;;2.70;;
65835;SDS011;52595;51.608;7.216;2023-07-31T10:20:54;5.50;;;3.22;;
65835;SDS011;52595;51.608;7.216;2023-07-31T10:23:20;6.07;;;2.97;;
65835;SDS011;52595;51.608;7.216;2023-07-31T10:25:46;5.13;;;2.83;;
65835;SDS011;52595;51.608;7.216;2023-07-31T10:28:12;6.45;;;3.38;;
65835;SDS011;52595;51.608;7.216;2023-07-31T10:30:38;4.75;;;2.50;;
65835;SDS011;52595;51.608;7.216;2023-07-31T10:33:05;5.88;;;2.80;;
65835;SDS011;52595;51.608;7.216;2023-07-31T10:35:31;4.20;;;2.55;;
65835;SDS011;52595;51.608;7.216;2023-07-31T10:37:56;5.40;;;2.67;;
65835;SDS011;52595;51.608;7.216;2023-07-31T10:40:35;4.50;;;2.72;;
65835;SDS011;52595;51.608;7.216;2023-07-31T10:43:01;4.20;;;2.60;;
65835;SDS011;52595;51.608;7.216;2023-07-31T10:45:33;4.95;;;2.70;;
65835;SDS011;52595;51.608;7.216;2023-07-31T10:48:04;5.93;;;2.80;;
65835;SDS011;52595;51.608;7.216;2023-07-31T10:50:47;7.65;;;3.67;;
65835;SDS011;52595;51.608;7.216;2023-07-31T10:53:31;6.03;;;3.83;;
65835;SDS011;52595;51.608;7.216;2023-07-31T10:55:58;7.45;;;4.18;;
65835;SDS011;52595;51.608;7.216;2023-07-31T10:58:31;7.63;;;4.88;;
65835;SDS011;52595;51.608;7.216;2023-07-31T11:01:00;9.02;;;4.88;;
65835;SDS011;52595;51.608;7.216;2023-07-31T11:03:46;8.00;;;5.35;;
65835;SDS011;52595;51.608;7.216;2023-07-31T11:06:19;8.85;;;5.30;;
65835;SDS011;52595;51.608;7.216;2023-07-31T11:08:45;9.85;;;5.85;;
65835;SDS011;52595;51.608;7.216;2023-07-31T11:11:13;11.27;;;6.20;;
65835;SDS011;52595;51.608;7.216;2023-07-31T11:13:50;11.32;;;6.68;;
65835;SDS011;52595;51.608;7.216;2023-07-31T11:16:23;8.48;;;6.22;;
65835;SDS011;52595;51.608;7.216;2023-07-31T11:18:50;11.18;;;7.03;;
65835;SDS011;52595;51.608;7.216;2023-07-31T11:21:24;12.82;;;7.75;;
65835;SDS011;52595;51.608;7.216;2023-07-31T11:23:52;11.23;;;6.97;;
65835;SDS011;52595;51.608;7.216;2023-07-31T11:26:19;12.27;;;7.20;;
65835;SDS011;52595;51.608;7.216;2023-07-31T11:28:47;11.88;;;5.93;;
65835;SDS011;52595;51.608;7.216;2023-07-31T11:31:13;12.57;;;6.90;;
65835;SDS011;52595;51.608;7.216;2023-07-31T11:33:39;11.68;;;6.88;;
65835;SDS011;52595;51.608;7.216;2023-07-31T11:36:04;12.40;;;6.90;;
65835;SDS011;52595;51.608;7.216;2023-07-31T11:38:31;10.40;;;6.93;;
65835;SDS011;52595;51.608;7.216;2023-07-31T11:40:58;11.82;;;6.03;;
65835;SDS011;52595;51.608;7.216;2023-07-31T11:43:24;10.35;;;6.13;;
65835;SDS011;52595;51.608;7.216;2023-07-31T11:45:52;11.35;;;5.88;;
65835;SDS011;52595;51.608;7.216;2023-07-31T11:48:20;8.35;;;5.43;;
65835;SDS011;52595;51.608;7.216;2023-07-31T11:50:51;11.70;;;6.75;;
65835;SDS011;52595;51.608;7.216;2023-07-31T11:53:19;10.55;;;6.30;;
65835;SDS011;52595;51.608;7.216;2023-07-31T11:55:48;10.35;;;5.70;;
65835;SDS011;52595;51.608;7.216;2023-07-31T11:58:14;11.07;;;5.88;;
65835;SDS011;52595;51.608;7.216;2023-07-31T12:00:41;10.90;;;5.72;;
65835;SDS011;52595;51.608;7.216;2023-07-31T12:03:06;11.25;;;5.95;;
65835;SDS011;52595;51.608;7.216;2023-07-31T12:05:32;9.05;;;4.93;;
65835;SDS011;52595;51.608;7.216;2023-07-31T12:07:57;9.77;;;4.88;;
65835;SDS011;52595;51.608;7.216;2023-07-31T12:10:30;8.48;;;4.60;;
65835;SDS011;52595;51.608;7.216;2023-07-31T12:18:11;9.25;;;5.65;;
65835;SDS011;52595;51.608;7.216;2023-07-31T12:20:45;8.95;;;5.05;;
65835;SDS011;52595;51.608;7.216;2023-07-31T12:23:22;7.57;;;4.60;;
65835;SDS011;52595;51.608;7.216;2023-07-31T12:28:50;7.43;;;4.97;;
65835;SDS011;52595;51.608;7.216;2023-07-31T12:31:20;8.70;;;5.60;;
65835;SDS011;52595;51.608;7.216;2023-07-31T12:36:17;9.95;;;5.75;;
65835;SDS011;52595;51.608;7.216;2023-07-31T12:38:45;11.50;;;6.22;;
65835;SDS011;52595;51.608;7.216;2023-07-31T12:41:12;11.82;;;6.28;;
65835;SDS011;52595;51.608;7.216;2023-07-31T12:43:38;9.55;;;6.63;;
65835;SDS011;52595;51.608;7.216;2023-07-31T12:46:05;10.95;;;6.90;;
65835;SDS011;52595;51.608;7.216;2023-07-31T12:48:35;10.10;;;6.57;;
65835;SDS011;52595;51.608;7.216;2023-07-31T12:51:02;10.10;;;6.50;;
65835;SDS011;52595;51.608;7.216;2023-07-31T12:53:28;10.45;;;6.95;;
65835;SDS011;52595;51.608;7.216;2023-07-31T12:55:55;11.20;;;5.70;;
65835;SDS011;52595;51.608;7.216;2023-07-31T12:58:21;8.60;;;5.70;;
65835;SDS011;52595;51.608;7.216;2023-07-31T13:00:46;8.35;;;5.28;;
65835;SDS011;52595;51.608;7.216;2023-07-31T13:03:11;10.20;;;6.28;;
65835;SDS011;52595;51.608;7.216;2023-07-31T13:05:37;7.82;;;5.65;;
65835;SDS011;52595;51.608;7.216;2023-07-31T13:08:02;9.13;;;6.10;;
65835;SDS011;52595;51.608;7.216;2023-07-31T13:10:28;11.30;;;6.40;;
65835;SDS011;52595;51.608;7.216;2023-07-31T13:12:54;7.72;;;4.80;;
65835;SDS011;52595;51.608;7.216;2023-07-31T13:15:20;6.65;;;4.18;;
65835;SDS011;52595;51.608;7.216;2023-07-31T13:17:45;7.35;;;4.10;;
65835;SDS011;52595;51.608;7.216;2023-07-31T13:20:14;7.03;;;4.35;;
65835;SDS011;52595;51.608;7.216;2023-07-31T13:22:39;8.23;;;4.20;;
65835;SDS011;52595;51.608;7.216;2023-07-31T13:25:05;9.07;;;4.47;;
65835;SDS011;52595;51.608;7.216;2023-07-31T13:27:31;6.40;;;3.78;;
65835;SDS011;52595;51.608;7.216;2023-07-31T13:29:56;6.47;;;4.10;;
65835;SDS011;52595;51.608;7.216;2023-07-31T13:32:22;8.75;;;4.45;;
65835;SDS011;52595;51.608;7.216;2023-07-31T13:34:47;5.47;;;3.65;;
65835;SDS011;52595;51.608;7.216;2023-07-31T13:37:13;6.25;;;3.58;;
65835;SDS011;52595;51.608;7.216;2023-07-31T13:39:39;6.43;;;3.90;;
65835;SDS011;52595;51.608;7.216;2023-07-31T13:42:06;6.15;;;3.50;;
65835;SDS011;52595;51.608;7.216;2023-07-31T13:44:33;4.65;;;2.92;;
65835;SDS011;52595;51.608;7.216;2023-07-31T13:46:59;8.70;;;4.97;;
65835;SDS011;52595;51.608;7.216;2023-07-31T13:49:25;7.95;;;4.38;;
65835;SDS011;52595;51.608;7.216;2023-07-31T13:51:51;7.88;;;4.30;;
65835;SDS011;52595;51.608;7.216;2023-07-31T13:54:16;7.97;;;3.75;;
65835;SDS011;52595;51.608;7.216;2023-07-31T13:56:42;5.93;;;3.67;;
65835;SDS011;52595;51.608;7.216;2023-07-31T13:59:08;6.40;;;3.67;;
65835;SDS011;52595;51.608;7.216;2023-07-31T14:01:33;5.28;;;3.13;;
65835;SDS011;52595;51.608;7.216;2023-07-31T14:03:59;7.28;;;3.47;;
65835;SDS011;52595;51.608;7.216;2023-07-31T14:06:24;6.38;;;3.65;;
65835;SDS011;52595;51.608;7.216;2023-07-31T14:08:50;5.78;;;3.28;;
65835;SDS011;52595;51.608;7.216;2023-07-31T14:11:15;7.20;;;3.33;;
65835;SDS011;52595;51.608;7.216;2023-07-31T14:13:41;5.13;;;3.28;;
65835;SDS011;52595;51.608;7.216;2023-07-31T14:16:06;4.82;;;3.20;;
65835;SDS011;52595;51.608;7.216;2023-07-31T14:18:32;6.82;;;3.40;;
65835;SDS011;52595;51.608;7.216;2023-07-31T14:20:57;6.78;;;3.78;;
65835;SDS011;52595;51.608;7.216;2023-07-31T14:23:22;5.72;;;3.78;;
65835;SDS011;52595;51.608;7.216;2023-07-31T14:25:48;5.75;;;3.20;;
65835;SDS011;52595;51.608;7.216;2023-07-31T14:28:13;6.70;;;3.80;;
65835;SDS011;52595;51.608;7.216;2023-07-31T14:30:39;5.97;;;3.60;;
65835;SDS011;52595;51.608;7.216;2023-07-31T14:33:04;6.38;;;3.28;;
65835;SDS011;52595;51.608;7.216;2023-07-31T14:35:29;7.70;;;4.10;;
65835;SDS011;52595;51.608;7.216;2023-07-31T14:37:55;6.57;;;3.58;;
65835;SDS011;52595;51.608;7.216;2023-07-31T14:40:23;5.93;;;3.42;;
65835;SDS011;52595;51.608;7.216;2023-07-31T14:42:49;8.25;;;3.80;;
65835;SDS011;52595;51.608;7.216;2023-07-31T14:45:14;7.80;;;3.92;;
65835;SDS011;52595;51.608;7.216;2023-07-31T14:47:40;6.13;;;3.50;;
65835;SDS011;52595;51.608;7.216;2023-07-31T14:50:05;6.00;;;3.60;;
65835;SDS011;52595;51.608;7.216;2023-07-31T14:52:31;5.70;;;3.20;;
65835;SDS011;52595;51.608;7.216;2023-07-31T14:54:56;5.97;;;3.63;;
65835;SDS011;52595;51.608;7.216;2023-07-31T14:57:22;6.57;;;3.35;;
65835;SDS011;52595;51.608;7.216;2023-07-31T14:59:47;7.57;;;3.80;;
65835;SDS011;52595;51.608;7.216;2023-07-31T15:02:13;6.25;;;3.50;;